Time;durP1;ratioP1;P1;durP2;ratioP2;P2;SDS_P1;SDS_P2;PMS_P1;PMS_P2;Temp;Humidity;BMP_temperature;BMP_pressure;BME280_temperature;BME280_humidity;BME280_pressure;Samples;Min_cycle;Max_cycle;Signal;HPM_P1;HPM_P2
2022/10/30 00:02:06;;;;;;;24.30;8.90;;;;;;;15.92;100.00;101573.13;10380806;28;20069;-69
2022/10/30 00:07:06;;;;;;;16.98;8.55;;;;;;;15.89;100.00;101577.16;10379816;28;20037;-70
2022/10/30 00:12:06;;;;;;;17.85;8.38;;;;;;;15.86;100.00;101582.19;10379667;28;20042;-69
2022/10/30 00:17:07;;;;;;;18.27;10.05;;;;;;;15.84;100.00;101589.78;10380407;28;20038;-71
2022/10/30 00:22:08;;;;;;;19.65;8.68;;;;;;;15.85;100.00;101592.28;10379739;28;20101;-68
2022/10/30 00:27:08;;;;;;;18.10;7.72;;;;;;;15.84;100.00;101597.97;10381508;28;20054;-70
2022/10/30 00:32:09;;;;;;;20.45;8.75;;;;;;;15.85;100.00;101602.38;10379609;28;20456;-70
2022/10/30 00:37:09;;;;;;;17.05;8.85;;;;;;;15.83;100.00;101590.84;10381314;28;20053;-70
2022/10/30 00:42:11;;;;;;;11.63;7.40;;;;;;;15.77;100.00;101587.91;10378439;28;20073;-70
2022/10/30 00:47:25;;;;;;;21.25;8.68;;;;;;;15.73;100.00;101577.59;10378949;28;20026;-69
2022/10/30 00:52:27;;;;;;;11.43;8.55;;;;;;;15.65;100.00;101580.56;10378900;28;20029;-69
2022/10/30 00:57:27;;;;;;;10.30;8.27;;;;;;;15.61;100.00;101588.34;10361446;28;20049;-70
2022/10/30 01:02:27;;;;;;;18.88;8.85;;;;;;;15.57;100.00;101600.72;10377374;28;20478;-70
2022/10/30 01:07:28;;;;;;;24.55;10.60;;;;;;;15.56;100.00;101602.63;10377140;28;20113;-69
2022/10/30 01:12:28;;;;;;;16.02;7.93;;;;;;;15.52;100.00;101603.28;10376943;28;20474;-69
2022/10/30 01:17:55;;;;;;;18.52;7.63;;;;;;;15.45;100.00;101597.81;10359323;28;20461;-70
2022/10/30 01:23:19;;;;;;;13.40;8.63;;;;;;;15.39;100.00;101606.03;10377098;28;20038;-70
2022/10/30 01:28:24;;;;;;;20.20;9.10;;;;;;;15.34;100.00;101603.91;10375976;28;20050;-69
2022/10/30 01:33:24;;;;;;;17.85;8.85;;;;;;;15.34;100.00;101604.75;10359087;28;20099;-69
2022/10/30 01:38:34;;;;;;;17.02;8.98;;;;;;;15.36;100.00;101615.47;10376554;28;20034;-70
2022/10/30 01:43:34;;;;;;;14.05;8.27;;;;;;;15.33;100.00;101594.91;10358909;28;20033;-70
2022/10/30 01:48:52;;;;;;;11.23;8.32;;;;;;;15.37;100.00;101613.56;10377094;28;20481;-71
2022/10/30 01:54:16;;;;;;;10.48;7.97;;;;;;;15.44;100.00;101609.78;10359602;28;20030;-69
2022/10/30 01:59:28;;;;;;;13.77;8.07;;;;;;;15.47;100.00;101605.78;10359096;28;20038;-69
2022/10/30 02:04:28;;;;;;;12.50;9.32;;;;;;;15.38;100.00;101607.94;10358039;28;20527;-69
2022/10/30 02:09:29;;;;;;;21.27;9.07;;;;;;;15.32;100.00;101600.59;10374272;28;20120;-70
2022/10/30 02:14:32;;;;;;;17.70;9.90;;;;;;;15.27;100.00;101600.38;10373695;28;20497;-69
2022/10/30 02:19:33;;;;;;;15.50;9.98;;;;;;;15.18;100.00;101597.00;10375332;28;20362;-69
2022/10/30 02:24:33;;;;;;;15.98;9.32;;;;;;;15.13;100.00;101605.00;10374804;28;20034;-69
2022/10/30 02:29:34;;;;;;;17.27;9.70;;;;;;;15.07;100.00;101617.59;10390121;28;20449;-69
2022/10/30 02:34:35;;;;;;;14.75;10.30;;;;;;;15.03;100.00;101620.97;10374811;28;20038;-69
2022/10/30 02:39:36;;;;;;;20.50;10.18;;;;;;;14.98;100.00;101620.72;10373579;28;20034;-70
2022/10/30 02:44:36;;;;;;;19.23;10.18;;;;;;;14.86;100.00;101626.78;10374126;28;20045;-70
2022/10/30 02:49:37;;;;;;;13.32;9.38;;;;;;;14.77;100.00;101627.19;10375512;28;20421;-73
2022/10/30 02:54:38;;;;;;;39.47;10.40;;;;;;;14.65;100.00;101619.66;10359575;28;20049;-73
2022/10/30 02:59:39;;;;;;;17.27;10.63;;;;;;;14.52;100.00;101619.63;10374760;28;20131;-73
2022/10/30 03:04:40;;;;;;;29.83;10.40;;;;;;;14.43;100.00;101620.81;10380027;28;20195;-72
2022/10/30 03:09:40;;;;;;;23.23;11.20;;;;;;;14.37;100.00;101610.75;10383295;28;20430;-72
2022/10/30 03:14:41;;;;;;;24.65;11.35;;;;;;;14.28;100.00;101607.34;10382578;28;20159;-73
2022/10/30 03:19:42;;;;;;;16.08;9.98;;;;;;;14.17;100.00;101610.69;10396982;28;20397;-73
2022/10/30 03:24:43;;;;;;;14.48;10.27;;;;;;;14.06;100.00;101603.91;10380926;28;20393;-73
2022/10/30 03:29:47;;;;;;;15.55;12.05;;;;;;;13.96;100.00;101611.63;10382312;28;20389;-72
2022/10/30 03:34:48;;;;;;;33.45;9.82;;;;;;;13.75;100.00;101611.72;10381832;28;20038;-72
2022/10/30 03:39:49;;;;;;;21.33;8.82;;;;;;;13.62;100.00;101613.31;10381688;28;20172;-72
2022/10/30 03:44:49;;;;;;;19.00;10.18;;;;;;;13.53;100.00;101617.28;10382050;28;20080;-72
2022/10/30 03:49:50;;;;;;;22.17;11.00;;;;;;;13.47;100.00;101629.78;10381308;28;20034;-72
2022/10/30 03:54:51;;;;;;;16.13;11.00;;;;;;;13.42;100.00;101624.09;10379757;28;20123;-72
2022/10/30 03:59:52;;;;;;;21.00;12.00;;;;;;;13.35;100.00;101623.22;10380895;28;20038;-72
2022/10/30 04:04:56;;;;;;;18.02;10.27;;;;;;;13.28;100.00;101632.38;10381757;28;20030;-72
2022/10/30 04:09:57;;;;;;;18.80;11.15;;;;;;;13.18;100.00;101624.53;10380936;28;20034;-72
2022/10/30 04:14:58;;;;;;;15.85;10.77;;;;;;;13.13;100.00;101618.81;10379379;28;20070;-72
2022/10/30 04:19:59;;;;;;;23.20;10.68;;;;;;;13.22;100.00;101617.63;10380089;28;20029;-72
2022/10/30 04:24:59;;;;;;;13.35;11.68;;;;;;;13.13;100.00;101599.78;10379694;28;20029;-72
2022/10/30 04:30:00;;;;;;;14.95;10.48;;;;;;;13.08;100.00;101605.81;10381200;28;20072;-72
2022/10/30 04:35:07;;;;;;;21.33;11.00;;;;;;;13.05;100.00;101598.06;10378399;28;20034;-72
2022/10/30 04:40:09;;;;;;;35.88;11.68;;;;;;;12.96;100.00;101582.94;10394248;28;20029;-72
2022/10/30 04:45:13;;;;;;;25.45;13.70;;;;;;;12.84;100.00;101592.66;10394297;28;20555;-72
2022/10/30 04:50:13;;;;;;;19.38;12.93;;;;;;;12.84;100.00;101598.91;10377123;28;20033;-72
2022/10/30 04:55:14;;;;;;;25.77;12.32;;;;;;;12.83;100.00;101607.25;10394399;28;20037;-72
2022/10/30 05:00:15;;;;;;;24.83;11.27;;;;;;;12.77;100.00;101601.56;10378029;28;20061;-72
2022/10/30 05:05:16;;;;;;;22.67;11.85;;;;;;;12.76;100.00;101608.06;10377090;28;20555;-72
2022/10/30 05:10:17;;;;;;;18.33;11.88;;;;;;;12.72;100.00;101609.47;10378153;28;20057;-72
2022/10/30 05:15:17;;;;;;;17.70;11.90;;;;;;;12.64;100.00;101609.59;10377917;28;20049;-72
2022/10/30 05:20:18;;;;;;;16.20;9.75;;;;;;;12.57;100.00;101605.97;10376989;28;20038;-72
2022/10/30 05:25:19;;;;;;;13.48;10.32;;;;;;;12.49;100.00;101596.06;10376856;28;20025;-72
2022/10/30 05:30:20;;;;;;;19.05;12.52;;;;;;;12.49;100.00;101592.50;10392936;28;20045;-72
2022/10/30 05:35:21;;;;;;;20.58;13.27;;;;;;;12.48;100.00;101609.84;10392450;28;20144;-72
2022/10/30 05:40:22;;;;;;;15.07;11.20;;;;;;;12.42;100.00;101622.34;10378089;28;20042;-72
2022/10/30 05:45:26;;;;;;;12.95;10.75;;;;;;;12.36;100.00;101623.09;10376230;28;20030;-72
2022/10/30 05:50:27;;;;;;;16.70;11.18;;;;;;;12.30;100.00;101615.72;10377638;28;20084;-72
2022/10/30 05:55:28;;;;;;;21.63;12.60;;;;;;;12.32;100.00;101622.63;10377582;28;20048;-72
2022/10/30 06:00:30;;;;;;;22.20;13.40;;;;;;;12.33;100.00;101607.19;10375780;28;20030;-73
2022/10/30 06:05:37;;;;;;;24.30;13.13;;;;;;;12.42;100.00;101605.19;10374306;28;20381;-72
2022/10/30 06:15:58;;;;;;;23.48;12.23;;;;;;;12.60;100.00;101624.59;10374978;28;20096;-73
2022/10/30 06:20:58;;;;;;;21.00;12.25;;;;;;;12.59;100.00;101627.53;10375923;28;20068;-73
2022/10/30 06:25:59;;;;;;;20.70;11.82;;;;;;;12.61;100.00;101631.72;10392420;28;20057;-72
2022/10/30 06:31:01;;;;;;;20.88;12.88;;;;;;;12.71;100.00;101626.81;10373807;28;20030;-72
2022/10/30 06:36:04;;;;;;;23.05;12.57;;;;;;;12.83;100.00;101620.84;10374755;28;20061;-72
2022/10/30 06:41:05;;;;;;;38.30;14.85;;;;;;;12.91;100.00;101621.56;10375100;28;20038;-72
2022/10/30 06:46:06;;;;;;;18.63;13.00;;;;;;;12.98;100.00;101619.72;10374449;28;20088;-73
2022/10/30 06:51:07;;;;;;;27.40;14.05;;;;;;;13.12;100.00;101617.97;10390158;28;20029;-72
2022/10/30 06:56:08;;;;;;;23.45;12.90;;;;;;;13.30;100.00;101608.50;10374702;28;20038;-72
2022/10/30 07:01:08;;;;;;;19.55;12.80;;;;;;;13.47;100.00;101607.19;10389920;28;20069;-72
2022/10/30 07:06:09;;;;;;;27.67;13.02;;;;;;;13.65;100.00;101617.53;10373898;28;20109;-72
2022/10/30 07:11:12;;;;;;;16.40;11.25;;;;;;;13.77;100.00;101621.38;10373790;28;20390;-72
2022/10/30 07:21:52;;;;;;;21.95;12.77;;;;;;;14.40;100.00;101618.50;10330022;28;20040;-73
2022/10/30 07:26:54;;;;;;;16.50;11.90;;;;;;;14.41;100.00;101618.28;10361201;28;20471;-73
2022/10/30 07:31:55;;;;;;;18.27;13.00;;;;;;;14.46;100.00;101630.47;10389860;28;20048;-73
2022/10/30 07:36:56;;;;;;;26.27;12.20;;;;;;;15.18;100.00;101634.38;10374049;28;20125;-72
2022/10/30 07:42:12;;;;;;;21.92;12.15;;;;;;;15.38;100.00;101629.75;10389147;28;20037;-73
2022/10/30 07:47:15;;;;;;;17.17;12.27;;;;;;;15.91;100.00;101618.72;10388926;28;20466;-72
2022/10/30 07:52:16;;;;;;;31.17;13.88;;;;;;;16.39;100.00;101620.22;10379777;28;20072;-73
2022/10/30 07:57:17;;;;;;;13.00;10.90;;;;;;;16.83;100.00;101626.69;10382092;28;20048;-73
2022/10/30 08:02:17;;;;;;;23.30;10.30;;;;;;;16.50;100.00;101642.22;10379328;28;20137;-73
2022/10/30 08:07:21;;;;;;;12.35;10.05;;;;;;;16.70;100.00;101635.81;10379798;28;20030;-74
2022/10/30 08:12:22;;;;;;;16.13;8.95;;;;;;;17.38;100.00;101630.44;10396533;28;20033;-73
2022/10/30 08:17:41;;;;;;;23.20;10.38;;;;;;;17.77;100.00;101639.38;10380329;28;20474;-73
2022/10/30 08:22:53;;;;;;;20.88;11.02;;;;;;;17.86;100.00;101657.16;10381456;28;20056;-73
2022/10/30 08:27:59;;;;;;;28.33;10.35;;;;;;;17.55;100.00;101655.38;10393768;28;20103;-74
2022/10/30 08:33:01;;;;;;;19.45;9.52;;;;;;;17.28;100.00;101645.72;10379731;28;20037;-74
2022/10/30 08:38:05;;;;;;;20.38;9.60;;;;;;;17.08;100.00;101637.69;10362076;28;20045;-74
2022/10/30 08:43:06;;;;;;;17.02;10.00;;;;;;;17.15;100.00;101643.94;10380414;28;20462;-74
2022/10/30 08:48:09;;;;;;;16.45;10.02;;;;;;;17.19;100.00;101647.88;10378554;28;20026;-74
2022/10/30 08:53:11;;;;;;;25.67;11.38;;;;;;;17.55;100.00;101649.03;10393832;28;20118;-74
2022/10/30 08:58:12;;;;;;;22.95;9.73;;;;;;;18.01;100.00;101654.06;10393836;28;20116;-74
2022/10/30 09:03:13;;;;;;;15.82;10.63;;;;;;;18.63;100.00;101662.13;10376424;28;20466;-74
2022/10/30 09:08:17;;;;;;;19.52;11.57;;;;;;;19.22;100.00;101656.84;10376922;28;20034;-73
2022/10/30 09:13:18;;;;;;;20.08;9.70;;;;;;;19.46;100.00;101653.03;10377482;28;20041;-74
2022/10/30 09:18:19;;;;;;;15.07;9.68;;;;;;;19.90;100.00;101658.16;10378325;28;20116;-74
2022/10/30 09:23:20;;;;;;;27.33;10.10;;;;;;;20.59;100.00;101659.09;10377812;28;20129;-74
2022/10/30 09:28:20;;;;;;;10.82;8.85;;;;;;;21.21;100.00;101651.91;10392060;28;20050;-74
2022/10/30 09:33:21;;;;;;;26.25;9.27;;;;;;;21.63;100.00;101659.75;10375373;28;20232;-74
2022/10/30 09:38:22;;;;;;;17.17;10.95;;;;;;;21.41;100.00;101645.91;10377582;28;20029;-74
2022/10/30 09:43:51;;;;;;;22.00;10.07;;;;;;;21.68;98.91;101643.28;10376926;28;20128;-74
2022/10/30 09:49:00;;;;;;;10.52;8.65;;;;;;;22.03;98.92;101642.94;10375481;28;20029;-75
2022/10/30 09:54:23;;;;;;;12.23;9.13;;;;;;;22.16;98.64;101642.59;10375909;28;20382;-75
2022/10/30 09:59:36;;;;;;;17.27;8.80;;;;;;;22.16;98.13;101636.25;10361478;28;20482;-75
2022/10/30 10:04:40;;;;;;;15.98;8.10;;;;;;;22.25;98.30;101640.22;10375922;28;20033;-77
2022/10/30 10:09:41;;;;;;;7.65;6.72;;;;;;;22.56;95.66;101640.53;10376018;28;20152;-77
2022/10/30 10:14:45;;;;;;;10.18;7.68;;;;;;;22.92;94.21;101639.81;10373840;28;20108;-78
2022/10/30 10:19:58;;;;;;;17.60;8.02;;;;;;;23.48;91.88;101642.22;10359670;28;20367;-77
2022/10/30 10:24:59;;;;;;;14.90;7.43;;;;;;;23.67;92.96;101639.84;10376651;28;20414;-78
2022/10/30 10:30:19;;;;;;;16.92;7.28;;;;;;;23.58;91.73;101631.25;10373791;28;20045;-77
2022/10/30 10:35:25;;;;;;;14.35;8.70;;;;;;;23.32;89.74;101638.50;10360297;28;20033;-77
2022/10/30 10:40:47;;;;;;;12.55;7.00;;;;;;;22.92;90.70;101631.53;10375198;28;20564;-77
2022/10/30 10:46:01;;;;;;;11.75;6.53;;;;;;;22.83;90.46;101624.81;10378077;28;20034;-77
2022/10/30 10:51:11;;;;;;;11.25;8.82;;;;;;;22.79;92.17;101622.84;10402663;28;20049;-77
2022/10/30 10:56:15;;;;;;;10.43;7.03;;;;;;;22.87;92.13;101623.19;10418644;28;20065;-77
2022/10/30 11:01:53;;;;;;;19.20;7.20;;;;;;;22.82;91.43;101616.81;10402973;28;20502;-76
2022/10/30 11:07:05;;;;;;;9.35;6.75;;;;;;;23.18;90.67;101610.50;10297860;28;20475;-77
2022/10/30 11:12:06;;;;;;;16.25;8.45;;;;;;;23.42;90.89;101607.34;10345509;28;20367;-76
2022/10/30 11:17:41;;;;;;;26.73;8.52;;;;;;;23.57;90.40;101604.69;10376421;28;20046;-82
2022/10/30 11:22:43;;;;;;;9.55;8.43;;;;;;;23.51;91.13;101607.69;10360228;28;20041;-78
2022/10/30 11:27:45;;;;;;;10.80;7.45;;;;;;;23.01;88.79;101603.47;10365090;28;20386;-74
2022/10/30 11:32:52;;;;;;;14.32;7.65;;;;;;;23.05;90.92;101593.56;10364556;28;20371;-75
2022/10/30 11:38:15;;;;;;;13.77;7.55;;;;;;;23.00;89.84;101586.03;10380651;28;20041;-75
2022/10/30 11:43:21;;;;;;;12.65;6.68;;;;;;;22.87;91.50;101587.28;10363137;28;20029;-76
2022/10/30 11:48:27;;;;;;;10.10;6.30;;;;;;;22.48;92.04;101581.13;10379402;28;20059;-76
2022/10/30 11:59:35;;;;;;;12.30;5.88;;;;;;;21.81;92.57;101604.31;10296449;28;20068;-79
2022/10/30 12:04:35;;;;;;;;;;;;;;;21.42;92.03;101607.09;10374737;28;20124;-76
2022/10/30 12:15:28;;;;;;;11.77;6.38;;;;;;;21.08;93.61;101612.59;10284429;28;20043;-75
2022/10/30 12:20:32;;;;;;;15.05;7.57;;;;;;;20.83;93.18;101614.91;10362812;28;20042;-75
2022/10/30 12:25:35;;;;;;;7.43;5.95;;;;;;;20.62;92.32;101620.06;10379620;28;20104;-74
2022/10/30 12:30:48;;;;;;;20.08;6.90;;;;;;;20.31;92.37;101607.59;10377968;28;20033;-76
2022/10/30 12:35:55;;;;;;;9.90;6.47;;;;;;;19.96;92.90;101588.47;10363541;28;20030;-76
2022/10/30 12:41:13;;;;;;;;;;;;;;;;;;;;;
2022/10/30 12:52:24;;;;;;;8.30;5.75;;;;;;;20.13;92.28;101589.41;10334154;28;20030;-76
2022/10/30 12:57:45;;;;;;;10.48;6.13;;;;;;;20.10;92.55;101581.63;10337044;28;20068;-76
2022/10/30 13:03:14;;;;;;;7.93;5.60;;;;;;;20.15;92.82;101573.47;10361456;28;20106;-75
2022/10/30 13:08:38;;;;;;;13.63;5.97;;;;;;;20.19;92.86;101566.38;10377444;28;20029;-74
2022/10/30 13:13:47;;;;;;;9.32;5.80;;;;;;;20.04;92.71;101566.09;10360362;28;20033;-74
2022/10/30 13:18:48;;;;;;;20.83;8.00;;;;;;;20.03;92.84;101567.16;10377949;28;20057;-74
2022/10/30 13:24:20;;;;;;;9.38;6.63;;;;;;;20.00;93.19;101564.06;10376387;28;20030;-76
2022/10/30 13:29:36;;;;;;;8.43;5.40;;;;;;;20.37;92.93;101553.53;10376300;28;20112;-76
2022/10/30 13:40:51;;;;;;;7.82;4.80;;;;;;;20.67;92.47;101575.28;10376208;28;20042;-75
2022/10/30 13:46:11;;;;;;;12.68;6.07;;;;;;;20.42;92.17;101579.22;10375807;28;20041;-75
2022/10/30 13:51:43;;;;;;;12.68;5.95;;;;;;;20.00;92.70;101614.38;10376181;28;20026;-75
2022/10/30 13:56:45;;;;;;;9.23;5.43;;;;;;;19.66;92.54;101635.38;10374548;28;20176;-74
2022/10/30 14:02:38;;;;;;;8.77;3.70;;;;;;;19.32;91.86;101634.28;10374497;28;20112;-73
2022/10/30 14:08:03;;;;;;;13.95;4.07;;;;;;;19.17;91.53;101637.47;10358078;28;20049;-73
2022/10/30 14:13:20;;;;;;;13.60;4.00;;;;;;;18.93;91.59;101644.84;10374668;28;20037;-74
2022/10/30 14:24:23;;;;;;;7.50;4.20;;;;;;;18.73;93.05;101636.88;10374607;28;20475;-75
2022/10/30 14:29:42;;;;;;;17.98;5.53;;;;;;;18.61;93.35;101638.75;10374047;28;20049;-74
2022/10/30 14:35:39;;;;;;;;;;;;;;;;;;;;;
2022/10/30 14:40:48;;;;;;;10.95;6.00;;;;;;;18.25;94.39;101624.03;10367521;28;20425;-77
2022/10/30 14:45:55;;;;;;;4.90;4.03;;;;;;;18.05;95.51;101636.09;10373744;28;20056;-74
2022/10/30 14:51:21;;;;;;;8.48;4.15;;;;;;;17.95;95.76;101649.50;10358488;28;20054;-75
2022/10/30 15:03:18;;;;;;;6.30;3.83;;;;;;;17.96;96.57;101695.00;10381872;28;20041;-75
2022/10/30 15:08:58;;;;;;;7.25;3.95;;;;;;;17.79;98.38;101692.03;10327297;28;20045;-74
2022/10/30 15:20:00;;;;;;;;;;;;;;;17.49;98.74;101719.25;10343288;28;20038;-74
2022/10/30 15:25:01;;;;;;;10.55;6.03;;;;;;;17.39;98.64;101714.28;10382448;28;20386;-74
2022/10/30 15:30:20;;;;;;;9.00;5.35;;;;;;;17.31;98.13;101703.59;10380564;28;20046;-75
2022/10/30 15:35:51;;;;;;;5.97;4.05;;;;;;;17.21;98.57;101703.25;10382192;28;20409;-73
2022/10/30 15:41:01;;;;;;;4.00;3.30;;;;;;;17.22;98.40;101702.19;10379741;28;20077;-75
2022/10/30 15:46:02;;;;;;;11.77;3.50;;;;;;;17.11;97.56;101690.06;10382220;28;20030;-74
2022/10/30 15:51:36;;;;;;;10.68;4.47;;;;;;;16.93;97.75;101709.94;10381158;28;20030;-75
2022/10/30 15:56:52;;;;;;;7.22;4.80;;;;;;;16.81;98.04;101708.97;10364389;28;20049;-74
2022/10/30 16:01:57;;;;;;;11.88;4.63;;;;;;;16.67;98.23;101708.19;10379425;28;20037;-74
2022/10/30 16:07:03;;;;;;;14.60;6.38;;;;;;;16.63;98.48;101697.91;10379603;28;20030;-74
2022/10/30 16:18:40;;;;;;;;;;;;;;;;;;;;;
2022/10/30 16:35:43;;;;;;;7.32;4.60;;;;;;;16.44;99.67;101725.13;10203949;29;20141;-74
2022/10/30 16:41:48;;;;;;;12.48;5.50;;;;;;;16.39;99.38;101718.63;10197615;29;20071;-74
2022/10/30 16:53:33;;;;;;;13.13;6.15;;;;;;;16.28;99.87;101742.00;10254457;29;20039;-75
2022/10/30 16:58:34;;;;;;;23.88;6.25;;;;;;;16.27;99.84;101748.50;10298566;28;20042;-74
2022/10/30 17:03:37;;;;;;;10.65;4.40;;;;;;;16.22;100.00;101742.84;10377379;28;20038;-74
2022/10/30 17:08:40;;;;;;;5.07;4.38;;;;;;;16.16;100.00;101739.09;10376424;28;20033;-74
2022/10/30 17:14:07;;;;;;;13.77;4.25;;;;;;;16.13;100.00;101752.34;10376360;28;20034;-74
2022/10/30 17:19:29;;;;;;;8.40;3.43;;;;;;;16.08;100.00;101760.31;10360991;28;20038;-74
2022/10/30 17:24:31;;;;;;;21.40;5.57;;;;;;;16.07;100.00;101781.34;10377105;28;20030;-74
2022/10/30 17:29:35;;;;;;;9.77;4.15;;;;;;;16.01;100.00;101793.94;10376098;28;20049;-74
2022/10/30 17:34:36;;;;;;;7.30;2.47;;;;;;;16.01;100.00;101790.38;10376896;28;20030;-74
2022/10/30 17:39:36;;;;;;;8.43;3.35;;;;;;;15.97;100.00;101803.63;10377783;28;20037;-74
2022/10/30 17:44:45;;;;;;;7.85;2.53;;;;;;;15.75;100.00;101803.00;10359888;28;20101;-74
2022/10/30 17:49:53;;;;;;;4.88;2.67;;;;;;;15.55;100.00;101822.06;10375132;28;20021;-74
2022/10/30 17:55:18;;;;;;;8.93;4.22;;;;;;;15.51;100.00;101837.19;10318681;28;20054;-74
2022/10/30 18:00:31;;;;;;;14.90;2.40;;;;;;;15.53;100.00;101836.97;10361158;28;20030;-74
2022/10/30 18:05:32;;;;;;;3.08;2.67;;;;;;;15.48;100.00;101845.81;10377728;28;20032;-74
2022/10/30 18:10:33;;;;;;;5.03;2.00;;;;;;;15.44;100.00;101855.44;10358607;28;20037;-75
2022/10/30 18:20:54;;;;;;;9.32;3.05;;;;;;;15.14;100.00;101863.13;10374957;28;20037;-74
2022/10/30 18:25:55;;;;;;;8.90;1.63;;;;;;;14.91;100.00;101868.91;10374449;28;20038;-74
2022/10/30 18:31:00;;;;;;;2.53;1.63;;;;;;;14.74;100.00;101867.53;10373616;28;20077;-74
2022/10/30 18:36:05;;;;;;;1.40;1.30;;;;;;;14.63;100.00;101861.63;10375271;28;20042;-74
2022/10/30 18:41:41;;;;;;;2.15;1.90;;;;;;;14.54;100.00;101841.00;10374787;28;20088;-75
2022/10/30 18:46:42;;;;;;;3.05;1.92;;;;;;;14.44;100.00;101835.06;10373846;28;20382;-74
2022/10/30 18:51:43;;;;;;;8.30;4.95;;;;;;;14.34;100.00;101856.38;10375065;28;20041;-74
2022/10/30 18:56:44;;;;;;;5.60;3.33;;;;;;;14.27;100.00;101863.66;10374286;28;20034;-74
2022/10/30 19:01:45;;;;;;;9.85;3.60;;;;;;;14.27;100.00;101866.41;10373648;28;20034;-74
2022/10/30 19:06:48;;;;;;;2.63;2.42;;;;;;;14.30;100.00;101879.63;10374595;28;20458;-74
2022/10/30 19:11:49;;;;;;;3.53;2.03;;;;;;;14.48;100.00;101885.38;10374194;28;20042;-74
2022/10/30 19:16:52;;;;;;;3.20;2.00;;;;;;;14.54;100.00;101900.97;10374714;28;20034;-74
2022/10/30 19:22:01;;;;;;;1.30;1.30;;;;;;;14.50;100.00;101902.41;10374038;28;20061;-74
2022/10/30 19:27:02;;;;;;;3.15;2.05;;;;;;;14.39;100.00;101905.69;10374390;28;20037;-74
2022/10/30 19:32:06;;;;;;;10.25;1.60;;;;;;;14.25;100.00;101909.31;10372871;28;20445;-74
2022/10/30 19:37:16;;;;;;;4.00;2.33;;;;;;;14.22;100.00;101917.88;10373618;28;20076;-74
2022/10/30 19:42:17;;;;;;;4.45;1.63;;;;;;;14.27;100.00;101909.97;10358602;28;20041;-74
2022/10/30 19:47:17;;;;;;;2.60;2.22;;;;;;;14.29;100.00;101916.91;10379393;28;20061;-74
2022/10/30 19:52:18;;;;;;;3.45;1.75;;;;;;;14.33;100.00;101910.03;10381541;28;20045;-74
2022/10/30 19:57:19;;;;;;;9.27;2.13;;;;;;;14.35;100.00;101915.28;10380524;28;20037;-74
2022/10/30 20:02:20;;;;;;;2.30;2.10;;;;;;;14.28;100.00;101911.66;10380389;28;20465;-74
2022/10/30 20:07:21;;;;;;;4.35;1.77;;;;;;;14.17;100.00;101918.50;10379579;28;20037;-74
2022/10/30 20:12:21;;;;;;;1.60;1.40;;;;;;;14.03;100.00;101909.34;10380666;28;20050;-74
2022/10/30 20:17:23;;;;;;;1.95;1.60;;;;;;;13.92;100.00;101918.88;10379235;28;20046;-74
2022/10/30 20:22:23;;;;;;;1.45;1.35;;;;;;;13.82;100.00;101928.44;10381116;28;20390;-74
2022/10/30 20:27:25;;;;;;;4.68;1.80;;;;;;;13.61;100.00;101927.34;10379766;28;20043;-74
2022/10/30 20:32:27;;;;;;;3.00;1.58;;;;;;;13.42;100.00;101931.53;10378131;28;20099;-74
2022/10/30 20:37:27;;;;;;;2.55;2.05;;;;;;;13.32;100.00;101939.16;10381032;28;20045;-74
2022/10/30 20:42:29;;;;;;;4.03;1.73;;;;;;;13.17;100.00;101936.41;10379532;28;20557;-74
2022/10/30 20:47:29;;;;;;;3.63;1.98;;;;;;;13.05;100.00;101937.97;10362465;28;20026;-74
2022/10/30 20:52:42;;;;;;;8.25;3.90;;;;;;;12.95;100.00;101942.81;10379230;28;20517;-74
2022/10/30 20:57:55;;;;;;;2.95;1.65;;;;;;;12.85;100.00;101934.94;10378923;28;20053;-74
2022/10/30 21:03:01;;;;;;;2.92;2.15;;;;;;;12.76;100.00;101938.78;10378740;28;20112;-74
2022/10/30 21:08:14;;;;;;;6.40;3.03;;;;;;;12.62;100.00;101945.88;10377856;28;20034;-74
2022/10/30 21:13:14;;;;;;;5.07;2.58;;;;;;;12.44;100.00;101946.22;10378594;28;20117;-74
2022/10/30 21:18:19;;;;;;;5.40;2.75;;;;;;;12.27;100.00;101953.69;10378296;28;20571;-74
2022/10/30 21:23:20;;;;;;;4.63;2.33;;;;;;;12.14;100.00;101942.59;10376567;28;20038;-74
2022/10/30 21:28:24;;;;;;;6.90;3.67;;;;;;;12.11;100.00;101940.25;10377679;28;20548;-74
2022/10/30 21:33:24;;;;;;;3.92;2.78;;;;;;;12.13;100.00;101954.50;10375959;28;20046;-74
2022/10/30 21:38:25;;;;;;;4.88;2.33;;;;;;;12.07;100.00;101958.78;10377421;28;20088;-74
2022/10/30 21:43:26;;;;;;;6.60;3.10;;;;;;;12.05;100.00;101960.81;10376102;28;20037;-74
2022/10/30 21:48:27;;;;;;;5.32;2.83;;;;;;;12.02;100.00;101963.06;10376526;28;20044;-74
2022/10/30 21:53:29;;;;;;;2.28;2.05;;;;;;;11.86;100.00;101964.84;10376697;28;20034;-74
2022/10/30 22:04:46;;;;;;;4.68;2.80;;;;;;;11.75;100.00;101975.25;10336949;28;20041;-74
2022/10/30 22:09:55;;;;;;;8.30;3.45;;;;;;;11.76;100.00;101980.50;10374692;28;20037;-74
2022/10/30 22:14:56;;;;;;;2.83;2.63;;;;;;;11.78;100.00;101978.47;10377289;28;20057;-74
2022/10/30 22:19:57;;;;;;;7.80;2.63;;;;;;;11.70;100.00;101975.78;10375260;28;20109;-75
2022/10/30 22:24:58;;;;;;;3.75;2.85;;;;;;;11.81;100.00;101980.81;10376070;28;20398;-75
2022/10/30 22:29:58;;;;;;;3.88;2.15;;;;;;;11.83;100.00;101975.19;10342170;28;20137;-76
2022/10/30 22:34:59;;;;;;;2.30;2.10;;;;;;;11.76;100.00;101980.50;10358608;28;20113;-76
2022/10/30 22:40:04;;;;;;;2.38;2.17;;;;;;;11.74;100.00;101992.53;10375645;28;20073;-75
2022/10/30 22:45:06;;;;;;;3.63;2.60;;;;;;;11.74;100.00;101996.13;10374053;28;20066;-75
2022/10/30 22:50:09;;;;;;;3.25;2.40;;;;;;;11.74;100.00;102001.56;10342502;28;20069;-74
2022/10/30 22:55:25;;;;;;;;;;;;;;;;;;;;;
2022/10/30 23:00:39;;;;;;;4.28;2.55;;;;;;;11.82;100.00;101985.22;10330604;28;20054;-74
2022/10/30 23:05:41;;;;;;;7.70;2.33;;;;;;;11.94;100.00;101998.41;10374861;28;20038;-74
2022/10/30 23:10:42;;;;;;;2.15;1.73;;;;;;;11.96;100.00;101997.19;10374242;28;20038;-74
2022/10/30 23:15:43;;;;;;;5.80;2.38;;;;;;;12.01;100.00;101993.94;10374667;28;20030;-74
2022/10/30 23:20:44;;;;;;;5.07;2.40;;;;;;;12.07;100.00;101994.06;10376712;28;20132;-74
2022/10/30 23:25:45;;;;;;;3.40;2.90;;;;;;;12.04;100.00;101996.31;10381853;28;20473;-74
2022/10/30 23:31:09;;;;;;;4.72;2.53;;;;;;;12.04;100.00;101993.59;10380460;28;20046;-74
2022/10/30 23:36:13;;;;;;;2.10;1.83;;;;;;;12.10;100.00;101998.31;10381660;28;20520;-74
2022/10/30 23:41:23;;;;;;;3.28;2.30;;;;;;;12.08;100.00;101994.91;10381900;28;20100;-74
2022/10/30 23:46:25;;;;;;;1.88;1.77;;;;;;;12.12;100.00;102000.81;10381113;28;20042;-74
2022/10/30 23:51:25;;;;;;;2.88;2.55;;;;;;;12.09;100.00;101996.59;10381624;28;20129;-74
2022/10/30 23:56:28;;;;;;;2.75;2.28;;;;;;;12.04;100.00;101999.84;10380875;28;20562;-74
